createdAt,value
2019-04-04T00:02:25.404Z,2.63
2019-04-04T00:04:57.826Z,2.63
2019-04-04T00:07:28.988Z,2.57
2019-04-04T00:10:02.112Z,2.37
2019-04-04T00:12:32.644Z,2.90
2019-04-04T00:15:03.118Z,2.63
2019-04-04T00:17:33.796Z,2.43
2019-04-04T00:20:06.178Z,2.73
2019-04-04T00:22:36.811Z,2.67
2019-04-04T00:25:09.781Z,2.60
2019-04-04T00:27:39.352Z,2.93
2019-04-04T00:30:10.347Z,2.67
2019-04-04T00:32:40.864Z,2.53
2019-04-04T00:35:11.497Z,2.77
2019-04-04T00:37:41.950Z,2.23
2019-04-04T00:40:12.598Z,2.53
2019-04-04T00:42:43.161Z,2.37
2019-04-04T00:45:14.077Z,2.60
2019-04-04T00:47:44.493Z,2.80
2019-04-04T00:50:15.122Z,3.03
2019-04-04T00:52:45.551Z,3.13
2019-04-04T00:55:16.392Z,2.73
2019-04-04T00:57:48.194Z,3.00
2019-04-04T01:00:19.176Z,2.43
2019-04-04T01:02:49.790Z,2.70
2019-04-04T01:05:20.362Z,3.07
2019-04-04T01:07:50.774Z,2.93
2019-04-04T01:10:21.281Z,2.80
2019-04-04T01:12:52.112Z,3.23
2019-04-04T01:15:23.241Z,2.90
2019-04-04T01:17:53.710Z,2.10
2019-04-04T01:20:24.137Z,2.77
2019-04-04T01:22:56.145Z,2.77
2019-04-04T01:25:26.631Z,2.83
2019-04-04T01:27:57.276Z,3.17
2019-04-04T01:30:27.688Z,3.63
2019-04-04T01:32:58.335Z,2.97
2019-04-04T01:35:28.856Z,3.33
2019-04-04T01:37:59.275Z,2.50
2019-04-04T01:40:32.777Z,3.13
2019-04-04T01:43:01.680Z,2.60
2019-04-04T01:45:32.095Z,2.67
2019-04-04T01:48:02.565Z,2.60
2019-04-04T01:50:33.123Z,3.03
2019-04-04T01:53:03.654Z,2.50
2019-04-04T01:55:34.960Z,2.40
2019-04-04T01:58:09.699Z,3.10
2019-04-04T02:00:38.265Z,2.83
2019-04-04T02:03:08.771Z,2.40
2019-04-04T02:05:39.217Z,2.13
2019-04-04T02:08:09.626Z,2.33
2019-04-04T02:10:40.049Z,2.00
2019-04-04T02:13:10.538Z,1.90
2019-04-04T02:15:41.046Z,2.40
2019-04-04T02:18:11.655Z,2.10
2019-04-04T02:20:42.078Z,2.13
2019-04-04T02:23:12.710Z,1.90
2019-04-04T02:25:43.240Z,2.20
2019-04-04T02:28:13.589Z,2.40
2019-04-04T02:30:48.005Z,2.10
2019-04-04T02:33:16.148Z,2.20
2019-04-04T02:35:46.557Z,1.83
2019-04-04T02:38:16.982Z,2.43
2019-04-04T02:40:47.532Z,2.17
2019-04-04T02:43:17.892Z,2.33
2019-04-04T02:45:48.284Z,2.50
2019-04-04T02:48:23.413Z,2.23
2019-04-04T02:50:50.700Z,1.93
2019-04-04T02:53:21.201Z,2.10
2019-04-04T02:55:51.626Z,2.33
2019-04-04T02:58:22.173Z,2.07
2019-04-04T03:00:52.754Z,2.40
2019-04-04T03:03:23.345Z,2.40
2019-04-04T03:05:53.977Z,1.87
2019-04-04T03:08:24.390Z,2.00
2019-04-04T03:10:54.779Z,1.90
2019-04-04T03:13:25.475Z,2.03
2019-04-04T03:15:55.866Z,2.30
2019-04-04T03:18:26.494Z,2.00
2019-04-04T03:20:56.985Z,2.27
2019-04-04T03:23:27.454Z,1.73
2019-04-04T03:25:57.909Z,1.90
2019-04-04T03:28:31.477Z,2.00
2019-04-04T03:31:03.054Z,1.83
2019-04-04T03:33:32.915Z,1.80
2019-04-04T03:36:03.482Z,2.30
2019-04-04T03:38:33.988Z,2.80
2019-04-04T03:41:04.540Z,2.77
2019-04-04T03:43:35.041Z,1.90
2019-04-04T03:46:05.558Z,2.20
2019-04-04T03:48:36.088Z,1.77
2019-04-04T03:51:06.582Z,2.10
2019-04-04T03:53:38.789Z,2.60
2019-04-04T03:56:09.200Z,1.80
2019-04-04T03:58:39.690Z,1.43
2019-04-04T04:01:13.212Z,1.90
2019-04-04T04:03:42.237Z,2.07
2019-04-04T04:06:12.737Z,2.23
2019-04-04T04:08:43.124Z,2.00
2019-04-04T04:11:13.550Z,1.77
2019-04-04T04:13:43.991Z,1.80
2019-04-04T04:16:14.407Z,2.37
2019-04-04T04:18:45.007Z,1.90
2019-04-04T04:21:15.471Z,2.50
2019-04-04T04:23:49.532Z,1.80
2019-04-04T04:26:18.022Z,2.30
2019-04-04T04:28:52.049Z,2.30
2019-04-04T04:31:20.757Z,1.70
2019-04-04T04:33:51.170Z,1.70
2019-04-04T04:36:21.612Z,2.00
2019-04-04T04:38:52.043Z,2.10
2019-04-04T04:41:22.579Z,2.13
2019-04-04T04:43:53.022Z,2.27
2019-04-04T04:46:23.424Z,1.93
2019-04-04T04:48:53.838Z,2.87
2019-04-04T04:51:24.278Z,1.90
2019-04-04T04:53:54.715Z,1.90
2019-04-04T04:56:25.181Z,2.03
2019-04-04T04:58:55.825Z,1.80
2019-04-04T05:01:26.301Z,2.20
2019-04-04T05:03:57.256Z,2.10
2019-04-04T05:06:27.885Z,2.23
2019-04-04T05:08:58.393Z,2.30
2019-04-04T05:11:29.034Z,1.77
2019-04-04T05:13:59.472Z,1.87
2019-04-04T05:16:29.873Z,2.10
2019-04-04T05:19:00.405Z,2.37
2019-04-04T05:21:33.739Z,1.87
2019-04-04T05:24:02.899Z,1.93
2019-04-04T05:26:34.482Z,2.50
2019-04-04T05:29:05.929Z,2.30
2019-04-04T05:31:37.441Z,3.40
2019-04-04T05:34:08.297Z,2.17
2019-04-04T05:36:38.724Z,1.90
2019-04-04T05:39:09.829Z,2.20
2019-04-04T05:41:40.390Z,1.80
2019-04-04T05:44:10.768Z,1.90
2019-04-04T05:46:41.584Z,2.10
2019-04-04T05:49:11.977Z,2.03
2019-04-04T05:51:42.408Z,3.50
2019-04-04T05:54:12.832Z,2.07
2019-04-04T05:56:44.668Z,2.23
2019-04-04T05:59:15.350Z,2.03
2019-04-04T06:01:45.753Z,1.90
2019-04-04T06:04:17.253Z,1.90
2019-04-04T06:06:48.564Z,1.97
2019-04-04T06:09:18.969Z,2.37
2019-04-04T06:11:50.915Z,2.27
2019-04-04T06:14:21.537Z,1.77
2019-04-04T06:16:52.003Z,2.43
2019-04-04T06:19:22.490Z,2.33
2019-04-04T06:21:53.061Z,2.20
2019-04-04T06:24:25.194Z,2.30
2019-04-04T06:26:55.625Z,1.50
2019-04-04T06:29:26.083Z,1.70
2019-04-04T06:31:59.865Z,1.70
2019-04-04T06:34:28.781Z,1.93
2019-04-04T06:36:59.212Z,2.27
2019-04-04T06:39:29.639Z,1.80
2019-04-04T06:42:01.083Z,1.93
2019-04-04T06:44:32.022Z,2.20
2019-04-04T06:47:02.478Z,1.90
2019-04-04T06:49:33.292Z,1.90
2019-04-04T06:52:04.941Z,2.10
2019-04-04T06:54:35.352Z,1.83
2019-04-04T06:57:05.800Z,1.90
2019-04-04T06:59:36.471Z,1.53
2019-04-04T07:02:07.425Z,1.67
2019-04-04T07:04:38.073Z,1.97
2019-04-04T07:07:08.556Z,1.50
2019-04-04T07:09:38.953Z,1.63
2019-04-04T07:12:20.908Z,2.00
2019-04-04T07:14:46.281Z,1.57
2019-04-04T07:17:16.232Z,1.57
2019-04-04T07:19:46.345Z,1.43
2019-04-04T07:22:20.315Z,1.17
2019-04-04T07:24:49.724Z,1.33
2019-04-04T07:27:20.137Z,1.40
2019-04-04T07:29:50.541Z,1.40
2019-04-04T07:32:21.444Z,1.60
2019-04-04T07:34:52.047Z,1.20
2019-04-04T07:37:22.764Z,1.30
2019-04-04T07:39:53.227Z,1.30
2019-04-04T07:42:23.634Z,1.37
2019-04-04T07:44:54.649Z,1.67
2019-04-04T07:47:25.361Z,1.23
2019-04-04T07:49:55.852Z,1.30
2019-04-04T07:52:26.678Z,1.20
2019-04-04T07:54:57.096Z,1.30
2019-04-04T07:57:29.961Z,1.50
2019-04-04T07:59:59.578Z,1.80
2019-04-04T08:02:30.017Z,1.57
2019-04-04T08:05:00.546Z,1.80
2019-04-04T08:07:31.269Z,1.40
2019-04-04T08:10:01.747Z,1.47
2019-04-04T08:12:32.029Z,1.40
2019-04-04T08:15:02.445Z,1.00
2019-04-04T08:17:32.878Z,1.67
2019-04-04T08:20:03.522Z,1.20
2019-04-04T08:22:34.927Z,0.90
2019-04-04T08:25:05.371Z,1.20
2019-04-04T08:27:35.814Z,1.50
2019-04-04T08:30:06.894Z,1.60
2019-04-04T08:32:37.556Z,0.90
2019-04-04T08:35:08.428Z,1.17
2019-04-04T08:37:38.963Z,1.20
2019-04-04T08:40:09.931Z,1.20
2019-04-04T08:42:40.431Z,1.40
2019-04-04T08:45:11.363Z,1.30
2019-04-04T08:47:41.788Z,1.33
2019-04-04T08:50:12.419Z,1.70
2019-04-04T08:52:42.775Z,1.00
2019-04-04T08:55:13.336Z,1.07
2019-04-04T08:57:43.803Z,1.20
2019-04-04T09:00:14.538Z,1.30
2019-04-04T09:02:44.961Z,1.30
2019-04-04T09:05:15.457Z,1.00
2019-04-04T09:07:45.992Z,1.20
2019-04-04T09:10:16.564Z,1.63
2019-04-04T09:12:48.000Z,1.37
2019-04-04T09:15:18.531Z,1.40
2019-04-04T09:17:48.957Z,1.23
2019-04-04T09:20:19.590Z,1.30
2019-04-04T09:22:50.080Z,1.40
2019-04-04T09:25:20.546Z,1.43
2019-04-04T09:27:50.978Z,1.20
2019-04-04T09:30:22.224Z,1.50
2019-04-04T09:32:52.719Z,1.03
2019-04-04T09:35:23.283Z,1.43
2019-04-04T09:37:53.742Z,1.40
2019-04-04T09:40:24.253Z,1.50
2019-04-04T09:42:54.683Z,1.30
2019-04-04T09:45:25.100Z,1.60
2019-04-04T09:47:55.516Z,1.40
2019-04-04T09:50:26.045Z,1.50
2019-04-04T09:52:56.688Z,1.50
2019-04-04T09:55:27.175Z,1.80
2019-04-04T09:57:57.632Z,1.37
2019-04-04T10:00:28.073Z,1.53
2019-04-04T10:02:58.553Z,1.77
2019-04-04T10:05:29.034Z,1.60
2019-04-04T10:07:59.549Z,1.30
2019-04-04T10:10:30.106Z,1.43
2019-04-04T10:13:00.605Z,1.43
2019-04-04T10:15:31.033Z,1.87
2019-04-04T10:18:01.911Z,1.53
2019-04-04T10:20:32.543Z,1.23
2019-04-04T10:23:03.029Z,1.30
2019-04-04T10:25:33.459Z,1.50
2019-04-04T10:28:03.881Z,1.37
2019-04-04T10:30:34.377Z,1.40
2019-04-04T10:33:05.143Z,1.10
2019-04-04T10:35:35.564Z,1.50
2019-04-04T10:38:06.000Z,1.37
2019-04-04T10:40:36.428Z,1.33
2019-04-04T10:43:06.880Z,1.27
2019-04-04T10:45:38.217Z,2.00
2019-04-04T10:48:08.668Z,1.00
2019-04-04T10:50:39.143Z,1.10
2019-04-04T10:53:09.590Z,1.10
2019-04-04T10:55:40.027Z,1.07
2019-04-04T10:58:10.443Z,1.10
2019-04-04T11:00:40.779Z,1.27
2019-04-04T11:03:12.241Z,1.00
2019-04-04T11:05:42.710Z,1.20
2019-04-04T11:08:13.342Z,1.20
2019-04-04T11:10:43.905Z,1.27
2019-04-04T11:13:14.392Z,1.30
2019-04-04T11:15:44.879Z,0.90
2019-04-04T11:18:15.292Z,1.13
2019-04-04T11:20:45.927Z,1.10
2019-04-04T11:23:16.354Z,1.00
2019-04-04T11:25:46.675Z,1.80
2019-04-04T11:28:17.102Z,1.10
2019-04-04T11:30:47.777Z,0.97
2019-04-04T11:33:18.331Z,1.23
2019-04-04T11:35:48.804Z,1.57
2019-04-04T11:38:19.289Z,1.30
2019-04-04T11:40:49.750Z,1.30
2019-04-04T11:43:20.393Z,1.10
2019-04-04T11:45:50.889Z,1.23
2019-04-04T11:48:21.334Z,1.00
2019-04-04T11:50:51.672Z,1.30
2019-04-04T11:53:22.088Z,1.00
2019-04-04T11:55:52.525Z,1.13
2019-04-04T11:58:23.045Z,1.10
2019-04-04T12:00:54.761Z,1.10
2019-04-04T12:03:25.230Z,1.27
2019-04-04T12:05:55.670Z,1.62
2019-04-04T12:08:26.184Z,1.30
2019-04-04T12:10:56.639Z,1.40
2019-04-04T12:13:27.258Z,1.20
2019-04-04T12:15:57.702Z,0.97
2019-04-04T12:18:28.173Z,1.37
2019-04-04T12:20:58.729Z,1.37
2019-04-04T12:23:29.156Z,0.97
2019-04-04T12:25:59.554Z,0.80
2019-04-04T12:28:30.014Z,1.10
2019-04-04T12:31:00.428Z,0.77
2019-04-04T12:33:30.877Z,0.73
2019-04-04T12:36:01.293Z,0.97
2019-04-04T12:38:31.718Z,0.93
2019-04-04T12:41:02.363Z,0.80
2019-04-04T12:43:32.793Z,1.10
2019-04-04T12:46:03.205Z,1.00
2019-04-04T12:48:33.677Z,1.30
2019-04-04T12:51:04.160Z,1.10
2019-04-04T12:53:34.693Z,1.67
2019-04-04T12:56:05.117Z,1.27
2019-04-04T12:58:35.533Z,1.20
2019-04-04T13:01:07.406Z,1.07
2019-04-04T13:03:38.002Z,1.00
2019-04-04T13:06:08.461Z,1.30
2019-04-04T13:08:39.062Z,1.07
2019-04-04T13:11:09.573Z,1.10
2019-04-04T13:13:40.051Z,1.00
2019-04-04T13:16:10.546Z,0.80
2019-04-04T13:18:41.054Z,1.00
2019-04-04T13:21:11.744Z,0.70
2019-04-04T13:23:42.268Z,0.80
2019-04-04T13:26:12.752Z,0.60
2019-04-04T13:28:43.398Z,0.90
2019-04-04T13:31:13.875Z,0.90
2019-04-04T13:33:44.304Z,1.17
2019-04-04T13:36:14.713Z,0.93
2019-04-04T13:38:44.962Z,1.00
2019-04-04T13:41:21.981Z,1.13
2019-04-04T13:43:47.605Z,1.13
2019-04-04T13:46:18.062Z,0.97
2019-04-04T13:48:48.485Z,1.30
2019-04-04T13:51:21.120Z,1.03
2019-04-04T13:53:51.081Z,0.80
2019-04-04T13:56:21.508Z,1.27
2019-04-04T13:58:52.025Z,0.90
2019-04-04T14:01:25.180Z,1.50
2019-04-04T14:03:54.521Z,2.17
2019-04-04T14:06:24.960Z,3.37
2019-04-04T14:08:55.668Z,2.63
2019-04-04T14:11:26.302Z,1.53
2019-04-04T14:13:58.818Z,1.20
2019-04-04T14:16:29.137Z,1.13
2019-04-04T14:18:59.535Z,1.40
2019-04-04T14:21:30.301Z,1.50
2019-04-04T14:24:12.505Z,1.60
2019-04-04T14:26:32.773Z,0.97
2019-04-04T14:29:04.536Z,1.00
2019-04-04T14:31:35.294Z,0.90
2019-04-04T14:34:05.798Z,1.30
2019-04-04T14:36:36.225Z,0.87
2019-04-04T14:39:08.250Z,0.80
2019-04-04T14:41:38.716Z,0.60
2019-04-04T14:44:09.244Z,0.70
2019-04-04T14:46:39.988Z,0.90
2019-04-04T14:49:14.193Z,1.10
2019-04-04T14:51:42.575Z,1.20
2019-04-04T14:54:13.026Z,0.90
2019-04-04T14:56:43.430Z,1.20
2019-04-04T14:59:13.847Z,1.13
2019-04-04T15:01:44.207Z,1.20
2019-04-04T15:04:14.600Z,1.20
2019-04-04T15:06:45.035Z,1.03
2019-04-04T15:09:15.638Z,1.23
2019-04-04T15:11:46.315Z,1.10
2019-04-04T15:14:16.794Z,1.10
2019-04-04T15:16:47.222Z,1.20
2019-04-04T15:19:17.681Z,1.30
2019-04-04T15:21:48.209Z,1.23
2019-04-04T15:24:18.741Z,1.20
2019-04-04T15:26:49.224Z,1.30
2019-04-04T15:29:19.560Z,1.70
2019-04-04T15:31:50.145Z,1.43
2019-04-04T15:34:20.543Z,1.40
2019-04-04T15:36:50.981Z,1.93
2019-04-04T15:39:21.415Z,2.80
2019-04-04T15:41:52.105Z,2.30
2019-04-04T15:44:22.375Z,1.80
2019-04-04T15:46:52.790Z,1.90
2019-04-04T15:49:23.536Z,1.57
2019-04-04T15:51:53.849Z,1.53
2019-04-04T15:54:24.285Z,1.97
2019-04-04T15:56:54.773Z,1.80
2019-04-04T15:59:25.296Z,1.50
2019-04-04T16:01:55.759Z,1.63
2019-04-04T16:04:26.201Z,1.67
2019-04-04T16:06:56.628Z,1.50
2019-04-04T16:09:27.245Z,1.37
2019-04-04T16:11:57.639Z,1.63
2019-04-04T16:14:28.218Z,1.37
2019-04-04T16:16:58.626Z,1.97
2019-04-04T16:19:29.053Z,1.60
2019-04-04T16:21:59.685Z,1.70
2019-04-04T16:24:32.573Z,1.73
2019-04-04T16:27:03.208Z,1.90
2019-04-04T16:29:33.836Z,1.23
2019-04-04T16:32:04.260Z,1.70
2019-04-04T16:34:34.689Z,0.90
2019-04-04T16:37:05.088Z,0.87
2019-04-04T16:39:35.607Z,1.10
2019-04-04T16:42:06.394Z,1.10
2019-04-04T16:44:36.897Z,1.90
2019-04-04T16:47:07.336Z,1.43
2019-04-04T16:49:38.359Z,1.10
2019-04-04T16:52:09.077Z,2.00
2019-04-04T16:54:39.540Z,1.23
2019-04-04T16:57:09.936Z,1.10
2019-04-04T16:59:40.378Z,1.40
2019-04-04T17:02:10.854Z,1.87
2019-04-04T17:04:41.463Z,1.20
2019-04-04T17:07:11.789Z,1.73
2019-04-04T17:09:42.262Z,1.60
2019-04-04T17:12:15.048Z,1.60
2019-04-04T17:14:45.097Z,6.00
2019-04-04T17:17:15.530Z,1.67
2019-04-04T17:19:45.957Z,2.37
2019-04-04T17:22:16.589Z,2.33
2019-04-04T17:24:47.017Z,3.93
2019-04-04T17:27:17.559Z,7.00
2019-04-04T17:29:48.699Z,2.80
2019-04-04T17:32:19.273Z,3.13
2019-04-04T17:34:50.261Z,2.00
2019-04-04T17:37:21.501Z,1.40
2019-04-04T17:39:52.338Z,1.80
2019-04-04T17:42:30.424Z,2.50
2019-04-04T17:44:55.960Z,3.53
2019-04-04T17:47:26.411Z,2.77
2019-04-04T17:49:56.972Z,2.50
2019-04-04T17:52:27.570Z,10.63
2019-04-04T17:54:57.881Z,3.90
2019-04-04T17:57:28.251Z,1.57
2019-04-04T17:59:58.741Z,2.80
2019-04-04T18:02:29.229Z,3.30
2019-04-04T18:04:59.800Z,2.20
2019-04-04T18:07:30.213Z,2.30
2019-04-04T18:10:00.642Z,5.73
2019-04-04T18:12:40.179Z,3.00
2019-04-04T18:15:03.098Z,3.63
2019-04-04T18:17:33.765Z,3.27
2019-04-04T18:20:04.418Z,3.77
2019-04-04T18:22:35.250Z,3.20
2019-04-04T18:25:05.923Z,4.93
2019-04-04T18:27:36.462Z,4.47
2019-04-04T18:30:08.725Z,3.17
2019-04-04T18:32:39.314Z,4.87
2019-04-04T18:35:10.594Z,4.53
2019-04-04T18:37:41.570Z,4.60
2019-04-04T18:40:12.607Z,5.03
2019-04-04T18:42:52.618Z,4.10
2019-04-04T18:45:15.336Z,4.53
2019-04-04T18:47:45.899Z,3.13
2019-04-04T18:50:16.385Z,3.23
2019-04-04T18:52:46.833Z,4.70
2019-04-04T18:55:20.138Z,4.07
2019-04-04T18:57:49.305Z,3.93
2019-04-04T19:00:19.999Z,2.70
2019-04-04T19:02:50.783Z,3.17
2019-04-04T19:05:21.376Z,5.20
2019-04-04T19:07:51.858Z,5.07
2019-04-04T19:10:22.435Z,4.53
2019-04-04T19:13:04.533Z,2.80
2019-04-04T19:15:25.275Z,2.50
2019-04-04T19:17:55.789Z,3.23
2019-04-04T19:20:26.719Z,4.33
2019-04-04T19:22:57.374Z,3.67
2019-04-04T19:25:27.907Z,2.30
2019-04-04T19:27:58.644Z,1.87
2019-04-04T19:30:31.200Z,2.83
2019-04-04T19:33:01.729Z,3.23
2019-04-04T19:35:32.377Z,1.83
2019-04-04T19:38:02.878Z,2.30
2019-04-04T19:40:33.321Z,2.67
2019-04-04T19:43:17.211Z,2.23
2019-04-04T19:45:36.850Z,1.63
2019-04-04T19:48:07.245Z,1.60
2019-04-04T19:50:39.122Z,1.53
2019-04-04T19:53:09.974Z,1.90
2019-04-04T19:55:42.419Z,2.00
2019-04-04T19:58:12.459Z,1.70
2019-04-04T20:00:43.685Z,1.90
2019-04-04T20:03:14.137Z,2.30
2019-04-04T20:05:44.818Z,1.97
2019-04-04T20:08:15.353Z,1.97
2019-04-04T20:10:46.124Z,2.10
2019-04-04T20:13:16.654Z,1.80
2019-04-04T20:15:47.210Z,2.30
2019-04-04T20:18:17.610Z,1.80
2019-04-04T20:20:48.100Z,1.77
2019-04-04T20:23:19.653Z,1.90
2019-04-04T20:25:50.165Z,1.80
2019-04-04T20:28:21.952Z,2.03
2019-04-04T20:30:52.438Z,1.83
2019-04-04T20:33:22.980Z,1.70
2019-04-04T20:35:53.484Z,2.27
2019-04-04T20:38:23.952Z,2.30
2019-04-04T20:40:54.687Z,1.80
2019-04-04T20:43:25.155Z,1.80
2019-04-04T20:45:55.544Z,1.90
2019-04-04T20:48:26.330Z,1.60
2019-04-04T20:50:56.709Z,1.80
2019-04-04T20:53:27.407Z,1.70
2019-04-04T20:55:57.918Z,1.53
2019-04-04T20:58:28.351Z,1.93
2019-04-04T21:00:58.725Z,1.87
2019-04-04T21:03:29.198Z,2.30
2019-04-04T21:05:59.614Z,2.40
2019-04-04T21:08:30.047Z,2.20
2019-04-04T21:11:00.790Z,2.50
2019-04-04T21:13:31.441Z,2.60
2019-04-04T21:16:03.382Z,2.60
2019-04-04T21:18:36.076Z,3.10
2019-04-04T21:21:06.941Z,2.70
2019-04-04T21:23:39.241Z,3.43
2019-04-04T21:26:14.773Z,3.67
2019-04-04T21:28:45.621Z,3.70
2019-04-04T21:31:22.539Z,3.87
2019-04-04T21:33:53.509Z,4.63
2019-04-04T21:36:24.490Z,4.57
2019-04-04T21:38:55.207Z,4.23
2019-04-04T21:41:26.334Z,4.67
2019-04-04T21:44:08.130Z,4.83
2019-04-04T21:46:30.220Z,4.50
2019-04-04T21:49:01.133Z,5.23
2019-04-04T21:51:32.063Z,5.10
2019-04-04T21:54:02.851Z,4.80
2019-04-04T21:56:35.650Z,4.93
2019-04-04T21:59:07.612Z,5.27
2019-04-04T22:01:38.189Z,4.27
2019-04-04T22:04:08.616Z,4.60
2019-04-04T22:06:39.316Z,4.20
2019-04-04T22:09:15.526Z,3.80
2019-04-04T22:11:46.310Z,3.43
2019-04-04T22:14:21.850Z,3.60
2019-04-04T22:16:49.168Z,3.00
2019-04-04T22:19:19.572Z,3.13
2019-04-04T22:21:50.000Z,3.23
2019-04-04T22:24:22.343Z,2.53
2019-04-04T22:26:52.609Z,2.47
2019-04-04T22:29:22.987Z,2.50
2019-04-04T22:31:53.466Z,2.60
2019-04-04T22:34:23.889Z,2.13
2019-04-04T22:36:54.277Z,2.63
2019-04-04T22:40:09.496Z,1.93
2019-04-04T22:42:39.893Z,1.90
2019-04-04T22:45:10.437Z,1.80
2019-04-04T22:48:01.754Z,2.40
2019-04-04T22:50:32.181Z,2.17
2019-04-04T22:53:02.888Z,2.20
2019-04-04T22:55:33.405Z,2.23
2019-04-04T22:58:03.737Z,1.90
2019-04-04T23:00:34.701Z,1.90
2019-04-04T23:03:07.030Z,1.60
2019-04-04T23:05:37.583Z,1.90
2019-04-04T23:08:08.038Z,1.90
2019-04-04T23:10:38.425Z,1.57
2019-04-04T23:13:08.962Z,1.73
2019-04-04T23:15:45.944Z,1.70
2019-04-04T23:18:16.361Z,1.70
2019-04-04T23:20:47.045Z,1.60
2019-04-04T23:23:17.432Z,2.10
2019-04-04T23:25:47.788Z,1.83
2019-04-04T23:28:18.211Z,1.90
2019-04-04T23:30:48.762Z,1.97
2019-04-04T23:33:19.273Z,1.90
2019-04-04T23:35:49.734Z,1.90
2019-04-04T23:38:20.102Z,2.00
2019-04-04T23:40:50.525Z,1.97
2019-04-04T23:43:20.992Z,2.23
2019-04-04T23:45:51.387Z,2.57
2019-04-04T23:48:21.694Z,2.17
2019-04-04T23:50:52.181Z,2.93
2019-04-04T23:54:16.265Z,3.87
2019-04-04T23:56:46.772Z,3.60
2019-04-04T23:59:17.328Z,2.90
